Time;durP1;ratioP1;P1;durP2;ratioP2;P2;SDS_P1;SDS_P2;PMS_P1;PMS_P2;Temp;Humidity;BMP_temperature;BMP_pressure;BME280_temperature;BME280_humidity;BME280_pressure;Samples;Min_cycle;Max_cycle;Signal;HPM_P1;HPM_P2
2022/08/15 00:00:57;;;;;;;8.10;4.40;;;;;;;;;;4873244;29;20049;-72
2022/08/15 00:03:40;;;;;;;8.73;4.57;;;;;;;;;;4873090;29;20857;-71
2022/08/15 00:06:40;;;;;;;11.63;4.88;;;;;;;;;;4872728;29;20053;-72
2022/08/15 00:09:22;;;;;;;15.57;5.55;;;;;;;;;;4873128;29;20041;-71
2022/08/15 00:12:12;;;;;;;10.98;5.47;;;;;;;;;;4873278;29;20045;-71
2022/08/15 00:15:08;;;;;;;17.27;5.88;;;;;;;;;;4873088;29;20060;-71
2022/08/15 00:17:38;;;;;;;;;;;;;;;;;;4873278;29;20056;-72
2022/08/15 00:20:18;;;;;;;18.52;8.50;;;;;;;;;;4873378;29;19927;-72
2022/08/15 00:23:01;;;;;;;21.17;9.43;;;;;;;;;;4876711;29;20045;-72
2022/08/15 00:25:31;;;;;;;20.25;8.55;;;;;;;;;;4876850;29;20069;-72
2022/08/15 00:28:07;;;;;;;15.88;8.60;;;;;;;;;;4876043;29;20045;-72
2022/08/15 00:30:41;;;;;;;17.27;8.50;;;;;;;;;;4876274;29;20523;-72
2022/08/15 00:33:28;;;;;;;20.98;9.20;;;;;;;;;;4883207;29;20037;-72
2022/08/15 00:35:59;;;;;;;15.13;7.43;;;;;;;;;;4900616;29;20049;-72
2022/08/15 00:38:49;;;;;;;15.63;7.35;;;;;;;;;;4900953;29;20059;-72
2022/08/15 00:44:16;;;;;;;16.75;7.28;;;;;;;;;;4899027;29;20143;-73
2022/08/15 00:47:08;;;;;;;12.43;7.47;;;;;;;;;;4876524;29;20520;-74
2022/08/15 00:49:41;;;;;;;18.45;8.55;;;;;;;;;;4877289;29;20053;-73
2022/08/15 00:52:33;;;;;;;15.13;9.52;;;;;;;;;;4876251;29;20064;-72
2022/08/15 00:55:14;;;;;;;20.27;9.15;;;;;;;;;;4877108;29;20056;-71
2022/08/15 00:57:47;;;;;;;14.98;9.20;;;;;;;;;;4874706;29;20053;-73
2022/08/15 01:00:37;;;;;;;17.55;8.25;;;;;;;;;;4875366;29;20060;-73
2022/08/15 01:03:24;;;;;;;11.30;5.45;;;;;;;;;;4874221;29;20060;-71
2022/08/15 01:05:59;;;;;;;12.73;5.93;;;;;;;;;;4873452;29;20053;-73
2022/08/15 01:08:33;;;;;;;16.98;6.82;;;;;;;;;;4874020;29;20437;-77
2022/08/15 01:11:28;;;;;;;13.57;7.15;;;;;;;;;;4872190;29;20049;-73
2022/08/15 01:14:06;;;;;;;13.07;6.40;;;;;;;;;;4872262;29;20424;-73
2022/08/15 01:17:00;;;;;;;11.82;6.20;;;;;;;;;;4871601;29;20424;-73
2022/08/15 01:19:36;;;;;;;9.48;5.68;;;;;;;;;;4875046;29;20049;-73
2022/08/15 01:22:12;;;;;;;11.55;5.68;;;;;;;;;;4876447;29;20049;-73
2022/08/15 01:24:59;;;;;;;10.15;6.07;;;;;;;;;;4874076;29;20084;-72
2022/08/15 01:27:57;;;;;;;16.33;6.78;;;;;;;;;;4873105;29;20064;-73
2022/08/15 01:30:31;;;;;;;14.23;7.28;;;;;;;;;;4874734;29;20068;-73
2022/08/15 01:33:23;;;;;;;12.63;6.43;;;;;;;;;;4873346;29;20580;-73
2022/08/15 01:35:56;;;;;;;14.38;7.88;;;;;;;;;;4875432;29;20049;-73
2022/08/15 01:38:28;;;;;;;18.10;7.78;;;;;;;;;;4873336;29;20057;-73
2022/08/15 01:41:33;;;;;;;18.38;7.78;;;;;;;;;;4873998;29;20057;-72
2022/08/15 01:44:22;;;;;;;15.77;8.30;;;;;;;;;;4875637;29;20402;-72
2022/08/15 01:47:17;;;;;;;18.88;9.57;;;;;;;;;;4874148;29;20057;-77
2022/08/15 01:50:09;;;;;;;12.25;7.97;;;;;;;;;;4874814;29;20052;-72
2022/08/15 01:52:54;;;;;;;13.23;7.25;;;;;;;;;;4873239;29;20052;-75
2022/08/15 01:55:44;;;;;;;;;;;;;;;;;;4874208;29;20428;-72
2022/08/15 01:58:30;;;;;;;17.80;9.90;;;;;;;;;;4873857;29;19928;-73
2022/08/15 02:01:06;;;;;;;20.00;10.57;;;;;;;;;;4873736;29;20053;-73
2022/08/15 02:03:41;;;;;;;17.88;10.23;;;;;;;;;;4873922;29;20068;-73
2022/08/15 02:06:25;;;;;;;15.02;9.35;;;;;;;;;;4874888;29;20065;-73
2022/08/15 02:09:15;;;;;;;15.70;10.00;;;;;;;;;;4873957;29;20053;-71
2022/08/15 02:12:08;;;;;;;17.30;9.07;;;;;;;;;;4873792;29;20425;-71
2022/08/15 02:15:01;;;;;;;11.98;8.05;;;;;;;;;;4873520;29;20717;-73
2022/08/15 02:17:31;;;;;;;12.45;7.63;;;;;;;;;;4873431;29;20064;-73
2022/08/15 02:20:04;;;;;;;15.70;8.32;;;;;;;;;;4872943;29;20509;-73
2022/08/15 02:22:55;;;;;;;15.30;9.07;;;;;;;;;;4873772;29;20405;-73
2022/08/15 02:25:26;;;;;;;15.43;8.98;;;;;;;;;;4873187;29;20421;-73
2022/08/15 02:28:06;;;;;;;13.23;8.32;;;;;;;;;;4874371;29;20041;-72
2022/08/15 02:30:59;;;;;;;16.90;8.80;;;;;;;;;;4873568;29;20537;-73
2022/08/15 02:33:30;;;;;;;17.58;8.82;;;;;;;;;;4874177;29;20049;-73
2022/08/15 02:36:06;;;;;;;21.50;8.98;;;;;;;;;;4872703;29;20061;-72
2022/08/15 02:38:40;;;;;;;14.30;7.88;;;;;;;;;;4858230;29;20056;-72
2022/08/15 02:41:24;;;;;;;13.90;8.00;;;;;;;;;;4872934;29;20061;-72
2022/08/15 02:44:06;;;;;;;12.02;8.23;;;;;;;;;;4871892;29;20548;-72
2022/08/15 02:46:43;;;;;;;12.02;6.90;;;;;;;;;;4872341;29;20060;-71
2022/08/15 02:49:33;;;;;;;13.20;7.43;;;;;;;;;;4874071;29;20060;-72
2022/08/15 02:52:20;;;;;;;11.30;6.43;;;;;;;;;;4871956;29;20394;-71
2022/08/15 02:54:55;;;;;;;12.45;6.30;;;;;;;;;;4873794;29;20053;-72
2022/08/15 02:57:33;;;;;;;12.27;6.43;;;;;;;;;;4874329;29;20524;-72
2022/08/15 03:00:23;;;;;;;12.90;7.43;;;;;;;;;;4872879;29;20162;-72
2022/08/15 03:03:06;;;;;;;11.25;6.28;;;;;;;;;;4873818;29;20056;-73
2022/08/15 03:05:48;;;;;;;11.52;6.50;;;;;;;;;;4872593;29;20413;-72
2022/08/15 03:08:24;;;;;;;11.73;6.47;;;;;;;;;;4873001;29;20083;-71
2022/08/15 03:10:56;;;;;;;9.55;6.35;;;;;;;;;;4871687;29;20397;-72
2022/08/15 03:13:31;;;;;;;11.23;6.60;;;;;;;;;;4872187;29;20056;-72
2022/08/15 03:16:10;;;;;;;10.75;6.43;;;;;;;;;;4874327;29;20551;-72
2022/08/15 03:18:49;;;;;;;10.73;6.32;;;;;;;;;;4873989;29;20041;-72
2022/08/15 03:21:22;;;;;;;12.25;6.95;;;;;;;;;;4872412;29;20053;-73
2022/08/15 03:23:54;;;;;;;14.38;6.45;;;;;;;;;;4874054;29;20061;-72
2022/08/15 03:26:25;;;;;;;11.68;6.05;;;;;;;;;;4872670;29;20068;-72
2022/08/15 03:29:18;;;;;;;15.82;6.22;;;;;;;;;;4872497;29;20057;-72
2022/08/15 03:31:52;;;;;;;;;;;;;;;;;;4872544;29;20064;-72
2022/08/15 03:34:26;;;;;;;13.18;6.80;;;;;;;;;;4872170;29;19935;-72
2022/08/15 03:37:01;;;;;;;11.38;7.00;;;;;;;;;;4871803;29;20049;-72
2022/08/15 03:39:34;;;;;;;12.57;7.20;;;;;;;;;;4872905;29;20061;-72
2022/08/15 03:42:09;;;;;;;11.35;7.70;;;;;;;;;;4872305;29;20064;-72
2022/08/15 03:44:48;;;;;;;14.57;8.20;;;;;;;;;;4871950;29;20068;-72
2022/08/15 03:47:21;;;;;;;11.27;7.78;;;;;;;;;;4871933;29;20064;-73
2022/08/15 03:49:52;;;;;;;12.32;6.93;;;;;;;;;;4873589;29;20405;-73
2022/08/15 03:52:58;;;;;;;18.02;7.70;;;;;;;;;;4871070;29;20068;-73
2022/08/15 03:55:37;;;;;;;17.17;8.20;;;;;;;;;;4873154;29;20064;-73
2022/08/15 03:58:10;;;;;;;19.27;9.25;;;;;;;;;;4876778;29;20413;-73
2022/08/15 04:01:01;;;;;;;17.27;8.98;;;;;;;;;;4875304;29;20057;-73
2022/08/15 04:03:32;;;;;;;15.13;9.15;;;;;;;;;;4876573;29;20053;-73
2022/08/15 04:06:06;;;;;;;14.95;10.02;;;;;;;;;;4860914;29;20068;-73
2022/08/15 04:08:50;;;;;;;13.63;8.45;;;;;;;;;;4875665;29;20064;-73
2022/08/15 04:11:45;;;;;;;15.55;9.35;;;;;;;;;;4875451;29;20111;-73
2022/08/15 04:14:23;;;;;;;17.08;9.23;;;;;;;;;;4874963;29;20053;-73
2022/08/15 04:17:05;;;;;;;16.27;8.45;;;;;;;;;;4874822;29;20068;-73
2022/08/15 04:19:50;;;;;;;17.55;9.13;;;;;;;;;;4875304;29;20049;-73
2022/08/15 04:22:41;;;;;;;14.77;9.00;;;;;;;;;;4875295;29;20057;-72
2022/08/15 04:25:38;;;;;;;16.60;9.27;;;;;;;;;;4876976;29;20040;-72
2022/08/15 04:28:29;;;;;;;15.70;8.40;;;;;;;;;;4875322;29;20065;-72
2022/08/15 04:31:21;;;;;;;13.10;8.82;;;;;;;;;;4874495;29;20068;-72
2022/08/15 04:33:51;;;;;;;14.10;8.82;;;;;;;;;;4874690;29;20061;-72
2022/08/15 04:36:42;;;;;;;12.75;7.15;;;;;;;;;;4874401;29;20502;-72
2022/08/15 04:39:14;;;;;;;13.95;7.57;;;;;;;;;;4874526;29;20429;-71
2022/08/15 04:42:01;;;;;;;13.07;6.45;;;;;;;;;;4874678;29;20053;-72
2022/08/15 04:44:32;;;;;;;13.80;7.03;;;;;;;;;;4874759;29;20429;-72
2022/08/15 04:47:02;;;;;;;10.40;7.00;;;;;;;;;;4875059;29;20049;-72
2022/08/15 04:49:32;;;;;;;13.77;6.80;;;;;;;;;;4876466;29;20059;-72
2022/08/15 04:52:08;;;;;;;9.20;6.28;;;;;;;;;;4875659;29;20056;-72
2022/08/15 04:54:41;;;;;;;13.13;6.50;;;;;;;;;;4874596;29;20068;-72
2022/08/15 04:57:32;;;;;;;10.20;6.10;;;;;;;;;;4874299;29;20424;-72
2022/08/15 05:00:07;;;;;;;11.27;6.68;;;;;;;;;;4875041;29;20052;-71
2022/08/15 05:03:08;;;;;;;9.45;6.25;;;;;;;;;;4877690;29;20421;-72
2022/08/15 05:05:49;;;;;;;11.07;6.72;;;;;;;;;;4874197;29;20599;-72
2022/08/15 05:08:29;;;;;;;13.60;6.60;;;;;;;;;;4874582;29;20056;-72
2022/08/15 05:11:14;;;;;;;11.18;7.38;;;;;;;;;;4859831;29;20056;-72
2022/08/15 05:13:49;;;;;;;11.90;7.22;;;;;;;;;;4874556;29;20056;-72
2022/08/15 05:16:28;;;;;;;10.95;6.75;;;;;;;;;;4874232;29;20143;-72
2022/08/15 05:19:06;;;;;;;9.88;6.55;;;;;;;;;;4873407;29;20065;-72
2022/08/15 05:21:39;;;;;;;8.45;6.05;;;;;;;;;;4875743;29;20504;-72
2022/08/15 05:24:15;;;;;;;13.57;6.30;;;;;;;;;;4874290;29;20056;-71
2022/08/15 05:27:00;;;;;;;10.18;6.15;;;;;;;;;;4874468;29;20061;-72
2022/08/15 05:29:33;;;;;;;10.30;6.15;;;;;;;;;;4874189;29;20056;-71
2022/08/15 05:32:07;;;;;;;13.07;7.25;;;;;;;;;;4875379;29;20045;-72
2022/08/15 05:34:48;;;;;;;7.85;5.90;;;;;;;;;;4874365;29;20401;-71
2022/08/15 05:37:22;;;;;;;11.50;5.75;;;;;;;;;;4873373;29;20060;-71
2022/08/15 05:40:13;;;;;;;12.10;6.15;;;;;;;;;;4873691;29;20068;-71
2022/08/15 05:43:22;;;;;;;9.00;6.25;;;;;;;;;;4873599;29;20061;-72
2022/08/15 05:46:27;;;;;;;9.25;5.82;;;;;;;;;;4873212;29;20052;-72
2022/08/15 05:49:08;;;;;;;8.80;6.03;;;;;;;;;;4874422;29;20527;-71
2022/08/15 05:52:01;;;;;;;12.32;5.88;;;;;;;;;;4875202;29;20057;-71
2022/08/15 05:54:48;;;;;;;8.98;5.95;;;;;;;;;;4873598;29;20060;-71
2022/08/15 05:57:27;;;;;;;13.20;6.07;;;;;;;;;;4873869;29;20053;-71
2022/08/15 06:00:10;;;;;;;8.98;5.78;;;;;;;;;;4873863;29;20057;-71
2022/08/15 06:02:57;;;;;;;10.60;6.22;;;;;;;;;;4873312;29;20061;-72
2022/08/15 06:05:32;;;;;;;10.35;6.25;;;;;;;;;;4875092;29;20053;-71
2022/08/15 06:08:13;;;;;;;11.88;6.82;;;;;;;;;;4873119;29;20072;-72
2022/08/15 06:11:14;;;;;;;12.80;5.85;;;;;;;;;;4874738;29;20449;-72
2022/08/15 06:13:55;;;;;;;9.63;5.85;;;;;;;;;;4873804;29;20060;-71
2022/08/15 06:16:41;;;;;;;13.15;6.35;;;;;;;;;;4873286;29;20076;-71
2022/08/15 06:19:31;;;;;;;9.63;6.30;;;;;;;;;;4873353;29;20065;-71
2022/08/15 06:22:36;;;;;;;13.25;5.55;;;;;;;;;;4873549;29;20053;-71
2022/08/15 06:25:37;;;;;;;11.93;6.80;;;;;;;;;;4872800;29;20049;-71
2022/08/15 06:28:20;;;;;;;11.05;6.93;;;;;;;;;;4872553;29;20045;-71
2022/08/15 06:31:16;;;;;;;12.50;6.43;;;;;;;;;;4872381;29;20592;-71
2022/08/15 06:34:10;;;;;;;9.75;5.72;;;;;;;;;;4872967;29;20056;-72
2022/08/15 06:37:20;;;;;;;9.40;6.10;;;;;;;;;;4872614;29;20072;-71
2022/08/15 06:40:20;;;;;;;10.68;6.75;;;;;;;;;;4872633;29;20053;-71
2022/08/15 06:42:59;;;;;;;;;;;;;;;;;;4873782;29;20045;-70
2022/08/15 06:45:55;;;;;;;9.95;6.07;;;;;;;;;;4886457;29;19927;-71
2022/08/15 06:48:35;;;;;;;10.50;6.97;;;;;;;;;;4889242;29;20375;-71
2022/08/15 06:51:26;;;;;;;10.43;6.28;;;;;;;;;;4875700;29;20061;-71
2022/08/15 06:54:23;;;;;;;9.82;5.95;;;;;;;;;;4887451;29;20497;-71
2022/08/15 06:57:40;;;;;;;10.05;6.18;;;;;;;;;;4875280;29;20053;-71
2022/08/15 07:00:27;;;;;;;11.80;6.03;;;;;;;;;;4883610;29;20049;-71
2022/08/15 07:03:41;;;;;;;12.23;6.05;;;;;;;;;;4873031;29;20056;-72
2022/08/15 07:06:33;;;;;;;11.93;7.22;;;;;;;;;;4872835;29;20041;-72
2022/08/15 07:09:24;;;;;;;10.88;6.10;;;;;;;;;;4872737;29;20497;-72
2022/08/15 07:12:21;;;;;;;8.85;5.57;;;;;;;;;;4872451;29;20053;-72
2022/08/15 07:15:36;;;;;;;12.30;6.43;;;;;;;;;;4858844;29;20689;-71
2022/08/15 07:18:22;;;;;;;8.90;5.72;;;;;;;;;;4868496;29;20049;-72
2022/08/15 07:21:08;;;;;;;10.63;5.30;;;;;;;;;;4872230;29;20057;-72
2022/08/15 07:24:08;;;;;;;9.80;5.45;;;;;;;;;;4871929;29;20052;-72
2022/08/15 07:27:12;;;;;;;8.20;5.32;;;;;;;;;;4873929;29;20053;-71
2022/08/15 07:29:48;;;;;;;9.98;5.43;;;;;;;;;;4871980;29;20049;-72
2022/08/15 07:32:53;;;;;;;10.88;5.03;;;;;;;;;;4871891;29;20061;-71
2022/08/15 07:35:34;;;;;;;10.65;5.78;;;;;;;;;;4871722;29;20059;-71
2022/08/15 07:38:10;;;;;;;9.73;5.20;;;;;;;;;;4872180;29;20068;-71
2022/08/15 07:41:23;;;;;;;8.15;5.40;;;;;;;;;;4871358;29;20072;-71
2022/08/15 07:44:15;;;;;;;7.78;5.38;;;;;;;;;;4871885;29;20436;-71
2022/08/15 07:46:59;;;;;;;12.57;5.75;;;;;;;;;;4871656;29;20060;-71
2022/08/15 07:49:37;;;;;;;9.55;4.88;;;;;;;;;;4872571;29;20061;-72
2022/08/15 07:52:15;;;;;;;8.00;4.90;;;;;;;;;;4871880;29;20072;-72
2022/08/15 07:55:16;;;;;;;9.80;4.53;;;;;;;;;;4871536;29;20065;-71
2022/08/15 07:58:17;;;;;;;9.30;4.55;;;;;;;;;;4872005;29;20418;-71
2022/08/15 08:01:33;;;;;;;9.73;5.07;;;;;;;;;;4871936;29;20060;-71
2022/08/15 08:04:15;;;;;;;10.38;5.43;;;;;;;;;;4871344;29;20052;-71
2022/08/15 08:07:03;;;;;;;8.23;5.22;;;;;;;;;;4871568;29;20061;-71
2022/08/15 08:09:55;;;;;;;7.38;5.15;;;;;;;;;;4871330;29;20060;-71
2022/08/15 08:12:34;;;;;;;8.80;5.40;;;;;;;;;;4871695;29;20064;-72
2022/08/15 08:15:44;;;;;;;9.75;5.78;;;;;;;;;;4871123;29;20064;-72
2022/08/15 08:18:23;;;;;;;11.30;5.35;;;;;;;;;;4871743;29;20061;-71
2022/08/15 08:21:11;;;;;;;9.13;5.13;;;;;;;;;;4872889;29;20041;-71
2022/08/15 08:24:04;;;;;;;7.85;4.72;;;;;;;;;;4871327;29;20084;-72
2022/08/15 08:26:45;;;;;;;9.70;5.03;;;;;;;;;;4871335;29;20186;-72
2022/08/15 08:29:45;;;;;;;7.88;4.43;;;;;;;;;;4871729;29;20049;-70
2022/08/15 08:32:56;;;;;;;9.77;4.78;;;;;;;;;;4871557;29;20061;-72
2022/08/15 08:35:34;;;;;;;9.43;5.07;;;;;;;;;;4873648;29;20049;-72
2022/08/15 08:38:36;;;;;;;11.45;5.00;;;;;;;;;;4872711;29;20072;-71
2022/08/15 08:41:45;;;;;;;11.07;5.30;;;;;;;;;;4873732;29;20053;-71
2022/08/15 08:44:45;;;;;;;8.57;4.63;;;;;;;;;;4874597;29;20060;-71
2022/08/15 08:47:39;;;;;;;9.13;5.15;;;;;;;;;;4876214;29;20546;-71
2022/08/15 08:50:21;;;;;;;14.02;4.90;;;;;;;;;;4875888;29;20040;-72
2022/08/15 08:53:21;;;;;;;10.27;5.60;;;;;;;;;;4876271;29;20065;-71
2022/08/15 08:56:14;;;;;;;7.80;4.63;;;;;;;;;;4876379;29;20069;-72
2022/08/15 08:59:19;;;;;;;11.35;5.85;;;;;;;;;;4876406;29;20524;-71
2022/08/15 09:02:00;;;;;;;9.52;5.07;;;;;;;;;;4876237;29;20049;-71
2022/08/15 09:04:49;;;;;;;8.57;4.90;;;;;;;;;;4876408;29;20396;-70
2022/08/15 09:07:28;;;;;;;9.40;5.13;;;;;;;;;;4875507;29;20424;-72
2022/08/15 09:10:06;;;;;;;9.93;5.15;;;;;;;;;;4874622;29;20068;-72
2022/08/15 09:15:35;;;;;;;9.88;5.25;;;;;;;;;;4875954;29;20075;-70
2022/08/15 09:18:31;;;;;;;10.25;5.43;;;;;;;;;;4874982;29;20056;-71
2022/08/15 09:21:18;;;;;;;9.40;5.43;;;;;;;;;;4884163;29;20746;-70
2022/08/15 09:23:50;;;;;;;11.50;5.30;;;;;;;;;;4889609;29;20049;-70
2022/08/15 09:26:40;;;;;;;12.43;5.75;;;;;;;;;;4890115;29;20057;-70
2022/08/15 09:29:26;;;;;;;9.40;5.30;;;;;;;;;;4889065;29;20053;-70
2022/08/15 09:32:08;;;;;;;;;;;;;;;;;;4890717;29;20041;-71
2022/08/15 09:35:16;;;;;;;13.13;5.47;;;;;;;;;;4875747;29;19923;-74
2022/08/15 09:37:54;;;;;;;;;;;;;;;;;;4875782;29;20053;-71
2022/08/15 09:41:02;;;;;;;7.55;5.10;;;;;;;;;;4874385;29;19927;-71
2022/08/15 09:44:00;;;;;;;8.95;5.50;;;;;;;;;;4858541;29;20519;-71
2022/08/15 09:47:00;;;;;;;13.82;5.93;;;;;;;;;;4875295;29;20057;-71
2022/08/15 09:50:30;;;;;;;10.15;5.90;;;;;;;;;;4874993;29;20056;-71
2022/08/15 09:53:18;;;;;;;10.10;5.80;;;;;;;;;;4873346;29;20052;-71
2022/08/15 09:55:49;;;;;;;9.15;5.55;;;;;;;;;;4874728;29;20053;-71
2022/08/15 09:58:29;;;;;;;9.18;5.50;;;;;;;;;;4874865;29;20053;-73
2022/08/15 10:01:14;;;;;;;9.77;5.53;;;;;;;;;;4873982;29;20057;-71
2022/08/15 10:03:44;;;;;;;10.65;5.38;;;;;;;;;;4875447;29;20500;-70
2022/08/15 10:06:31;;;;;;;9.98;5.35;;;;;;;;;;4875206;29;20514;-72
2022/08/15 10:09:17;;;;;;;9.15;5.55;;;;;;;;;;4875019;29;20501;-71
2022/08/15 10:12:18;;;;;;;10.55;5.10;;;;;;;;;;4874669;29;20055;-72
2022/08/15 10:14:54;;;;;;;8.13;4.70;;;;;;;;;;4873328;29;20064;-72
2022/08/15 10:17:34;;;;;;;10.73;5.03;;;;;;;;;;4874517;29;20053;-72
2022/08/15 10:20:16;;;;;;;9.52;4.97;;;;;;;;;;4874398;29;20390;-72
2022/08/15 10:22:59;;;;;;;7.53;4.88;;;;;;;;;;4874528;29;20060;-72
2022/08/15 10:25:41;;;;;;;9.63;4.72;;;;;;;;;;4874167;29;20068;-71
2022/08/15 10:28:12;;;;;;;7.25;4.85;;;;;;;;;;4874647;29;20057;-71
2022/08/15 10:31:03;;;;;;;9.60;4.70;;;;;;;;;;4872977;29;20520;-71
2022/08/15 10:33:44;;;;;;;7.15;4.32;;;;;;;;;;4874535;29;20491;-71
2022/08/15 10:36:34;;;;;;;8.85;4.38;;;;;;;;;;4874373;29;20064;-72
2022/08/15 10:39:34;;;;;;;5.93;4.20;;;;;;;;;;4874078;29;20049;-71
2022/08/15 10:42:59;;;;;;;10.32;4.38;;;;;;;;;;4874066;29;20405;-72
2022/08/15 10:45:41;;;;;;;7.65;4.03;;;;;;;;;;4833945;29;20065;-71
2022/08/15 10:48:28;;;;;;;6.95;3.97;;;;;;;;;;4871137;29;20068;-71
2022/08/15 10:51:32;;;;;;;7.43;4.00;;;;;;;;;;4874336;29;20059;-72
2022/08/15 10:54:35;;;;;;;8.63;4.20;;;;;;;;;;4873940;29;20052;-71
2022/08/15 10:57:09;;;;;;;11.45;4.18;;;;;;;;;;4874231;29;20057;-71
2022/08/15 10:59:48;;;;;;;8.20;4.00;;;;;;;;;;4873834;29;20056;-72
2022/08/15 11:02:49;;;;;;;6.93;4.18;;;;;;;;;;4874040;29;20083;-72
2022/08/15 11:05:39;;;;;;;15.18;4.57;;;;;;;;;;4873066;29;20059;-71
2022/08/15 11:08:17;;;;;;;7.28;3.90;;;;;;;;;;4871856;29;20064;-72
2022/08/15 11:10:49;;;;;;;6.47;3.88;;;;;;;;;;4873302;29;20049;-72
2022/08/15 11:13:23;;;;;;;4.75;3.33;;;;;;;;;;4874278;29;20048;-72
2022/08/15 11:16:10;;;;;;;5.10;3.22;;;;;;;;;;4872691;29;20409;-72
2022/08/15 11:19:18;;;;;;;7.05;3.45;;;;;;;;;;4872713;29;20049;-71
2022/08/15 11:22:17;;;;;;;6.80;3.40;;;;;;;;;;4871863;29;20072;-72
2022/08/15 11:25:01;;;;;;;5.43;2.95;;;;;;;;;;4873151;29;20513;-71
2022/08/15 11:27:31;;;;;;;5.40;3.20;;;;;;;;;;4873177;29;20045;-72
2022/08/15 11:30:08;;;;;;;6.68;3.30;;;;;;;;;;4872993;29;20045;-71
2022/08/15 11:32:52;;;;;;;4.63;3.08;;;;;;;;;;4872017;29;20064;-71
2022/08/15 11:35:30;;;;;;;6.55;3.15;;;;;;;;;;4872213;29;20049;-71
2022/08/15 11:38:06;;;;;;;6.18;3.40;;;;;;;;;;4872201;29;20045;-70
2022/08/15 11:40:53;;;;;;;5.60;3.10;;;;;;;;;;4871182;29;20065;-72
2022/08/15 11:43:24;;;;;;;8.18;3.53;;;;;;;;;;4871847;29;20048;-71
2022/08/15 11:45:56;;;;;;;4.82;3.50;;;;;;;;;;4871253;29;20429;-71
2022/08/15 11:48:34;;;;;;;5.60;3.20;;;;;;;;;;4871506;29;20057;-73
2022/08/15 11:51:10;;;;;;;9.70;3.70;;;;;;;;;;4873009;29;20060;-71
2022/08/15 11:54:27;;;;;;;8.02;3.20;;;;;;;;;;4873235;29;20048;-71
2022/08/15 11:57:07;;;;;;;10.60;4.47;;;;;;;;;;4872889;29;20056;-72
2022/08/15 12:00:08;;;;;;;10.65;4.05;;;;;;;;;;4873306;29;20438;-71
2022/08/15 12:02:49;;;;;;;6.50;3.78;;;;;;;;;;4873249;29;20053;-73
2022/08/15 12:05:38;;;;;;;6.47;3.80;;;;;;;;;;4873054;29;20053;-72
2022/08/15 12:08:30;;;;;;;8.98;4.18;;;;;;;;;;4872811;29;20052;-74
2022/08/15 12:11:19;;;;;;;8.68;3.75;;;;;;;;;;4873221;29;20049;-71
2022/08/15 12:14:12;;;;;;;;;;;;;;;;;;4873442;29;20068;-71
2022/08/15 12:17:02;;;;;;;10.73;4.30;;;;;;;;;;4871753;29;20288;-72
2022/08/15 12:19:36;;;;;;;5.53;3.72;;;;;;;;;;4876671;29;20044;-72
2022/08/15 12:22:33;;;;;;;7.63;4.10;;;;;;;;;;4877185;29;20037;-72
2022/08/15 12:25:22;;;;;;;7.70;3.33;;;;;;;;;;4876243;29;20057;-72
2022/08/15 12:28:12;;;;;;;7.13;3.67;;;;;;;;;;4876191;29;20067;-72
2022/08/15 12:31:30;;;;;;;8.88;3.95;;;;;;;;;;4876714;29;20052;-73
2022/08/15 12:34:17;;;;;;;10.68;3.60;;;;;;;;;;4876590;29;20168;-71
2022/08/15 12:37:01;;;;;;;8.23;3.75;;;;;;;;;;4876846;29;20056;-71
2022/08/15 12:39:43;;;;;;;5.95;3.20;;;;;;;;;;4875892;29;20536;-71
2022/08/15 12:42:18;;;;;;;8.43;3.05;;;;;;;;;;4875907;29;20504;-73
2022/08/15 12:45:18;;;;;;;6.57;3.10;;;;;;;;;;4876267;29;20526;-74
2022/08/15 12:47:49;;;;;;;5.55;2.83;;;;;;;;;;4877007;29;20056;-72
2022/08/15 12:50:36;;;;;;;7.72;3.03;;;;;;;;;;4876008;29;20045;-72
2022/08/15 12:53:08;;;;;;;8.55;2.85;;;;;;;;;;4875757;29;20550;-71
2022/08/15 12:55:41;;;;;;;6.60;3.10;;;;;;;;;;4875904;29;20060;-71
2022/08/15 12:58:17;;;;;;;7.80;3.33;;;;;;;;;;4875947;29;20064;-72
2022/08/15 13:00:54;;;;;;;8.07;3.40;;;;;;;;;;4876144;29;20398;-72
2022/08/15 13:03:43;;;;;;;7.32;2.88;;;;;;;;;;4874830;29;20079;-72
2022/08/15 13:06:36;;;;;;;5.93;2.85;;;;;;;;;;4875609;29;20052;-73
2022/08/15 13:09:27;;;;;;;7.15;3.22;;;;;;;;;;4874503;29;20428;-72
2022/08/15 13:12:02;;;;;;;9.10;3.50;;;;;;;;;;4876112;29;20053;-77
2022/08/15 13:14:46;;;;;;;7.40;3.40;;;;;;;;;;4875735;29;20068;-72
2022/08/15 13:17:17;;;;;;;10.32;3.60;;;;;;;;;;4875243;29;20049;-72
2022/08/15 13:25:45;;;;;;;5.70;3.15;;;;;;;;;;4875235;29;20131;-72
2022/08/15 13:28:24;;;;;;;8.20;3.00;;;;;;;;;;4875484;29;20053;-72
2022/08/15 13:31:03;;;;;;;13.20;4.30;;;;;;;;;;4875462;29;20049;-72
2022/08/15 13:33:35;;;;;;;4.40;2.97;;;;;;;;;;4875567;29;20505;-72
2022/08/15 13:36:16;;;;;;;6.57;3.42;;;;;;;;;;4874795;29;20049;-72
2022/08/15 13:39:02;;;;;;;6.70;3.53;;;;;;;;;;4873328;29;20056;-72
2022/08/15 13:41:39;;;;;;;6.10;3.17;;;;;;;;;;4875162;29;20057;-72
2022/08/15 13:44:31;;;;;;;6.55;2.90;;;;;;;;;;4873271;29;20049;-74
2022/08/15 13:47:05;;;;;;;11.35;3.35;;;;;;;;;;4874703;29;20053;-72
2022/08/15 13:49:41;;;;;;;5.30;3.10;;;;;;;;;;4873013;29;20057;-72
2022/08/15 13:52:14;;;;;;;5.53;3.05;;;;;;;;;;4874474;29;20052;-72
2022/08/15 13:55:05;;;;;;;4.72;2.97;;;;;;;;;;4873535;29;20513;-72
2022/08/15 13:57:44;;;;;;;5.75;3.15;;;;;;;;;;4875353;29;20053;-71
2022/08/15 14:00:34;;;;;;;6.68;2.58;;;;;;;;;;4874523;29;20509;-71
2022/08/15 14:03:26;;;;;;;4.65;2.85;;;;;;;;;;4874596;29;20412;-71
2022/08/15 14:06:01;;;;;;;4.35;2.92;;;;;;;;;;4875087;29;20061;-73
2022/08/15 14:08:34;;;;;;;4.63;2.67;;;;;;;;;;4873477;29;20421;-76
2022/08/15 14:11:25;;;;;;;5.00;3.20;;;;;;;;;;4874766;29;20053;-75
2022/08/15 14:14:02;;;;;;;5.93;2.85;;;;;;;;;;4874494;29;20060;-72
2022/08/15 14:16:36;;;;;;;6.60;2.85;;;;;;;;;;4874440;29;20041;-72
2022/08/15 14:19:29;;;;;;;4.75;3.05;;;;;;;;;;4874503;29;20484;-72
2022/08/15 14:22:19;;;;;;;9.23;3.15;;;;;;;;;;4874213;29;20053;-73
2022/08/15 14:24:58;;;;;;;12.52;3.22;;;;;;;;;;4873089;29;20134;-74
2022/08/15 14:27:50;;;;;;;10.75;3.22;;;;;;;;;;4874177;29;20130;-72
2022/08/15 14:30:23;;;;;;;8.82;3.20;;;;;;;;;;4874251;29;20056;-72
2022/08/15 14:33:02;;;;;;;8.90;3.30;;;;;;;;;;4874390;29;20500;-72
2022/08/15 14:35:35;;;;;;;10.20;3.38;;;;;;;;;;4874419;29;20828;-75
2022/08/15 14:38:12;;;;;;;8.93;3.75;;;;;;;;;;4874518;29;20053;-73
2022/08/15 14:40:48;;;;;;;6.55;3.40;;;;;;;;;;4874302;29;20488;-73
2022/08/15 14:43:19;;;;;;;9.77;3.50;;;;;;;;;;4872756;29;20053;-72
2022/08/15 14:45:52;;;;;;;5.20;3.22;;;;;;;;;;4873897;29;20052;-72
2022/08/15 14:48:43;;;;;;;6.28;2.63;;;;;;;;;;4873701;29;20052;-71
2022/08/15 14:51:24;;;;;;;8.02;3.17;;;;;;;;;;4873187;29;20888;-73
2022/08/15 14:54:18;;;;;;;10.50;3.42;;;;;;;;;;4873313;29;20057;-76
2022/08/15 14:57:09;;;;;;;6.32;2.78;;;;;;;;;;4873709;29;20060;-73
2022/08/15 14:59:39;;;;;;;11.23;3.33;;;;;;;;;;4874331;29;20405;-73
2022/08/15 15:02:31;;;;;;;8.52;3.00;;;;;;;;;;4872670;29;20065;-76
2022/08/15 15:05:05;;;;;;;8.00;2.88;;;;;;;;;;4873797;29;20045;-73
2022/08/15 15:07:37;;;;;;;7.88;3.00;;;;;;;;;;4873773;29;20053;-74
2022/08/15 15:10:29;;;;;;;7.65;3.40;;;;;;;;;;4873327;29;20057;-72
2022/08/15 15:13:06;;;;;;;6.38;3.13;;;;;;;;;;4873546;29;20061;-72
2022/08/15 15:15:40;;;;;;;5.00;2.83;;;;;;;;;;4873509;29;20037;-75
2022/08/15 15:18:21;;;;;;;8.00;2.90;;;;;;;;;;4873543;29;20536;-73
2022/08/15 15:21:13;;;;;;;7.30;2.63;;;;;;;;;;4874087;29;20378;-73
2022/08/15 15:23:45;;;;;;;11.65;2.88;;;;;;;;;;4873757;29;20068;-72
2022/08/15 15:26:21;;;;;;;7.70;2.67;;;;;;;;;;4873779;29;20064;-73
2022/08/15 15:29:07;;;;;;;5.07;2.83;;;;;;;;;;4873742;29;20402;-72
2022/08/15 15:31:40;;;;;;;13.07;2.97;;;;;;;;;;4873767;29;20076;-72
2022/08/15 15:34:12;;;;;;;5.03;2.72;;;;;;;;;;4871909;29;20064;-72
2022/08/15 15:36:46;;;;;;;9.60;2.95;;;;;;;;;;4872906;29;20041;-73
2022/08/15 15:39:24;;;;;;;6.10;3.00;;;;;;;;;;4873250;29;20056;-74
2022/08/15 15:42:14;;;;;;;5.53;2.47;;;;;;;;;;4872082;29;20537;-74
2022/08/15 15:44:47;;;;;;;5.70;2.72;;;;;;;;;;4873299;29;20077;-74
2022/08/15 15:47:20;;;;;;;7.88;2.80;;;;;;;;;;4873373;29;20064;-74
2022/08/15 15:49:55;;;;;;;9.57;3.00;;;;;;;;;;4873671;29;21068;-74
2022/08/15 15:52:28;;;;;;;9.27;3.05;;;;;;;;;;4875848;29;20052;-73
2022/08/15 15:55:02;;;;;;;9.48;3.20;;;;;;;;;;4876879;29;20068;-72
2022/08/15 15:57:37;;;;;;;6.05;3.08;;;;;;;;;;4876823;29;20058;-73
2022/08/15 16:00:28;;;;;;;8.55;3.00;;;;;;;;;;4876915;29;20049;-75
2022/08/15 16:03:08;;;;;;;8.25;3.05;;;;;;;;;;4877006;29;20516;-73
2022/08/15 16:05:42;;;;;;;7.10;2.75;;;;;;;;;;4876400;29;20068;-73
2022/08/15 16:08:37;;;;;;;9.60;2.83;;;;;;;;;;4875192;29;20061;-74
2022/08/15 16:11:40;;;;;;;7.88;3.35;;;;;;;;;;4876321;29;20060;-73
2022/08/15 16:14:36;;;;;;;6.25;2.75;;;;;;;;;;4876720;29;20049;-73
2022/08/15 16:17:27;;;;;;;8.32;2.88;;;;;;;;;;4876682;29;20497;-73
2022/08/15 16:20:12;;;;;;;7.28;3.00;;;;;;;;;;4875648;29;20108;-73
2022/08/15 16:23:07;;;;;;;6.05;2.50;;;;;;;;;;4876448;29;20136;-73
2022/08/15 16:25:48;;;;;;;8.13;2.78;;;;;;;;;;4876689;29;20053;-74
2022/08/15 16:28:48;;;;;;;8.18;3.17;;;;;;;;;;4876260;29;20045;-74
2022/08/15 16:31:24;;;;;;;9.55;3.47;;;;;;;;;;4876488;29;20622;-72
2022/08/15 16:34:02;;;;;;;5.85;2.85;;;;;;;;;;4876575;29;20627;-73